Time;durP1;ratioP1;P1;durP2;ratioP2;P2;SDS_P1;SDS_P2;PMS_P1;PMS_P2;Temp;Humidity;BMP_temperature;BMP_pressure;BME280_temperature;BME280_humidity;BME280_pressure;Samples;Min_cycle;Max_cycle;Signal;HPM_P1;HPM_P2
2021/11/18 00:02:01;;;;;;;9.13;3.83;;;;;;;9.87;66.69;101654.75;6306157;22;20614;-76
2021/11/18 00:04:55;;;;;;;;;;;;;;;;;;;;;
2021/11/18 00:07:33;;;;;;;9.80;3.95;;;;;;;9.84;66.68;101664.25;6328625;22;20006;-76
2021/11/18 00:10:02;;;;;;;14.45;3.03;;;;;;;9.75;67.53;101641.03;6303516;22;20018;-74
2021/11/18 00:12:36;;;;;;;11.65;2.80;;;;;;;9.85;67.78;101644.06;6327604;22;19999;-72
2021/11/18 00:15:03;;;;;;;6.40;3.33;;;;;;;9.78;67.65;101638.69;6299636;22;20000;-72
2021/11/18 00:17:37;;;;;;;17.83;3.05;;;;;;;9.70;67.41;101640.91;6295978;22;20370;-75
2021/11/18 00:20:16;;;;;;;;;;;;;;;;;;;;;
2021/11/18 00:22:44;;;;;;;17.00;2.88;;;;;;;9.68;68.17;101619.28;6315991;22;20015;-73
2021/11/18 00:25:41;;;;;;;7.28;2.67;;;;;;;9.91;68.13;101654.03;6315270;22;19999;-77
2021/11/18 00:31:50;;;;;;;15.93;3.22;;;;;;;9.73;68.60;101618.59;6163524;23;19912;-74
2021/11/18 00:34:15;;;;;;;;;;;;;;;9.85;68.29;101649.50;6056652;23;20009;-75
2021/11/18 00:36:50;;;;;;;15.55;3.10;;;;;;;9.73;69.06;101640.44;6131467;23;19921;-73
2021/11/18 00:39:16;;;;;;;14.98;3.60;;;;;;;9.77;69.23;101647.94;6134194;23;20321;-72
2021/11/18 00:41:41;;;;;;;17.17;3.72;;;;;;;9.76;68.94;101648.19;6185513;22;20011;-73
2021/11/18 00:44:08;;;;;;;22.45;3.15;;;;;;;9.73;68.87;101652.19;6284310;22;20136;-71
2021/11/18 00:46:34;;;;;;;16.30;2.88;;;;;;;9.78;68.95;101644.16;6283062;22;20027;-72
2021/11/18 00:49:02;;;;;;;19.10;4.53;;;;;;;9.75;69.09;101627.38;6286010;22;20003;-74
2021/11/18 00:51:28;;;;;;;13.50;2.65;;;;;;;9.75;69.07;101632.84;6313104;22;20022;-73
2021/11/18 00:53:58;;;;;;;9.65;2.72;;;;;;;9.77;68.93;101647.94;6283909;22;20414;-73
2021/11/18 00:56:25;;;;;;;11.00;3.35;;;;;;;9.81;68.58;101631.09;6311466;22;20031;-72
2021/11/18 00:58:53;;;;;;;15.25;3.13;;;;;;;9.78;69.05;101632.38;6313331;22;20003;-72
2021/11/18 01:01:21;;;;;;;15.23;3.67;;;;;;;9.80;69.26;101630.28;6314286;22;20035;-73
2021/11/18 01:03:47;;;;;;;18.45;3.42;;;;;;;9.81;69.04;101636.56;6288963;22;20013;-74
2021/11/18 01:06:13;;;;;;;18.63;3.40;;;;;;;9.79;69.29;101634.88;6288329;22;20011;-74
2021/11/18 01:08:38;;;;;;;13.80;2.90;;;;;;;9.67;69.26;101608.59;6313063;22;20077;-71
2021/11/18 01:11:14;;;;;;;7.93;2.55;;;;;;;9.80;69.36;101627.53;6285916;22;20045;-73
2021/11/18 01:13:47;;;;;;;9.10;2.33;;;;;;;9.81;69.42;101640.09;6312219;22;19999;-74
2021/11/18 01:16:33;;;;;;;12.43;2.85;;;;;;;9.74;68.89;101631.19;6259481;22;20037;-73
2021/11/18 01:18:59;;;;;;;6.80;2.10;;;;;;;9.77;68.80;101615.16;6310594;22;19999;-74
2021/11/18 01:21:37;;;;;;;23.77;3.35;;;;;;;9.79;68.80;101615.75;6285028;22;20010;-73
2021/11/18 01:24:05;;;;;;;11.07;3.03;;;;;;;9.80;68.75;101613.88;6312029;22;20425;-75
2021/11/18 01:26:34;;;;;;;10.10;3.78;;;;;;;9.81;68.80;101620.97;6280432;22;20014;-72
2021/11/18 01:29:10;;;;;;;;;;;;;;;;;;;;;
2021/11/18 01:31:36;;;;;;;11.07;2.35;;;;;;;9.78;68.67;101629.66;6304889;22;20109;-73
2021/11/18 01:34:02;;;;;;;8.35;2.33;;;;;;;9.79;68.86;101632.16;6308314;22;20311;-72
2021/11/18 01:36:28;;;;;;;10.30;2.55;;;;;;;9.80;69.23;101624.81;6277300;22;19995;-74
2021/11/18 01:39:11;;;;;;;6.88;3.15;;;;;;;9.80;68.87;101619.34;6282817;22;20022;-74
2021/11/18 01:42:00;;;;;;;;;;;;;;;;;;;;;
2021/11/18 01:45:05;;;;;;;11.15;2.25;;;;;;;9.92;69.24;101641.25;6307698;22;20385;-75
2021/11/18 01:47:35;;;;;;;13.77;2.90;;;;;;;9.92;68.48;101639.34;6305976;22;20422;-73
2021/11/18 01:50:01;;;;;;;7.32;2.63;;;;;;;9.90;68.56;101629.69;6276881;22;20007;-73
2021/11/18 01:52:28;;;;;;;11.93;1.95;;;;;;;9.90;68.74;101625.06;6279170;22;20049;-74
2021/11/18 01:54:55;;;;;;;11.43;2.35;;;;;;;9.92;69.04;101638.50;6277932;22;20064;-74
2021/11/18 01:57:25;;;;;;;7.72;2.22;;;;;;;9.85;68.88;101622.19;6276371;22;20045;-74
2021/11/18 01:59:56;;;;;;;9.27;2.13;;;;;;;9.87;68.78;101639.22;6277314;22;20421;-73
2021/11/18 02:02:26;;;;;;;8.07;2.47;;;;;;;9.83;68.74;101659.84;6253835;22;20141;-74
2021/11/18 02:05:06;;;;;;;9.32;2.17;;;;;;;9.75;68.70;101650.09;6307309;22;20078;-75
2021/11/18 02:07:32;;;;;;;5.68;2.15;;;;;;;9.66;68.58;101656.09;6304231;22;20006;-73
2021/11/18 02:09:58;;;;;;;6.30;1.75;;;;;;;9.58;68.83;101649.06;6276593;22;20011;-73
2021/11/18 02:12:27;;;;;;;6.68;2.35;;;;;;;9.51;68.99;101646.38;6276039;22;20010;-74
2021/11/18 02:14:54;;;;;;;3.92;2.42;;;;;;;9.41;69.13;101646.09;6306901;22;20004;-74
2021/11/18 02:17:22;;;;;;;4.60;1.70;;;;;;;9.36;69.03;101646.78;6276834;22;20034;-73
2021/11/18 02:19:54;;;;;;;9.95;2.60;;;;;;;9.29;69.45;101650.63;6305707;22;20014;-74
2021/11/18 02:22:23;;;;;;;7.90;1.95;;;;;;;9.18;69.57;101650.31;6305858;22;20418;-74
2021/11/18 02:25:00;;;;;;;6.00;2.15;;;;;;;9.14;70.21;101646.41;6304933;22;20443;-76
2021/11/18 02:27:30;;;;;;;2.72;1.33;;;;;;;9.12;69.85;101651.25;6293876;22;20003;-75
2021/11/18 02:29:58;;;;;;;8.95;2.22;;;;;;;9.07;69.93;101635.56;6303495;22;20019;-73
2021/11/18 02:32:29;;;;;;;9.88;2.42;;;;;;;9.07;70.20;101637.47;6301047;22;20075;-75
2021/11/18 02:34:58;;;;;;;16.40;2.97;;;;;;;9.03;70.47;101628.06;6308053;22;20075;-74
2021/11/18 02:37:25;;;;;;;5.68;2.08;;;;;;;9.00;70.59;101631.22;6306455;22;20322;-76
2021/11/18 02:39:51;;;;;;;4.72;1.42;;;;;;;8.96;70.71;101624.56;6306162;22;20011;-74
2021/11/18 02:42:19;;;;;;;8.23;1.83;;;;;;;8.95;70.92;101628.34;6277617;22;20086;-75
2021/11/18 02:44:44;;;;;;;6.90;2.15;;;;;;;8.90;70.72;101637.19;6303029;22;19999;-74
2021/11/18 02:47:14;;;;;;;8.98;2.10;;;;;;;8.85;70.68;101624.25;6304679;22;20031;-74
2021/11/18 02:49:46;;;;;;;17.08;2.65;;;;;;;8.90;70.96;101631.75;6253875;22;20072;-76
2021/11/18 02:52:14;;;;;;;13.25;2.38;;;;;;;8.97;71.52;101637.16;6307174;22;20049;-74
2021/11/18 02:54:40;;;;;;;12.75;2.53;;;;;;;9.04;71.61;101643.38;6307791;22;20003;-76
2021/11/18 02:57:07;;;;;;;5.78;1.95;;;;;;;9.14;71.18;101643.69;6302518;22;20054;-76
2021/11/18 02:59:33;;;;;;;7.47;2.40;;;;;;;9.19;71.09;101646.53;6303077;22;20030;-75
2021/11/18 03:01:58;;;;;;;9.77;2.00;;;;;;;9.24;71.14;101643.13;6275755;22;20003;-76
2021/11/18 03:04:24;;;;;;;7.18;1.70;;;;;;;9.33;70.99;101646.38;6305866;22;20006;-76
2021/11/18 03:06:54;;;;;;;4.35;1.80;;;;;;;9.36;70.78;101629.56;6275562;22;20007;-77
2021/11/18 03:09:19;;;;;;;4.60;1.48;;;;;;;9.47;70.78;101627.97;6281697;22;20729;-77
2021/11/18 03:11:45;;;;;;;5.95;1.55;;;;;;;9.49;70.44;101623.09;6280878;22;20007;-77
2021/11/18 03:14:10;;;;;;;6.78;2.42;;;;;;;9.54;70.64;101624.09;6277620;22;20004;-77
2021/11/18 03:16:36;;;;;;;11.10;3.13;;;;;;;9.56;70.23;101613.78;6278790;22;19999;-77
2021/11/18 03:19:02;;;;;;;7.85;1.73;;;;;;;9.63;70.51;101621.88;6253971;22;20475;-72
2021/11/18 03:21:28;;;;;;;8.43;2.80;;;;;;;9.69;70.43;101620.13;6278452;22;20467;-74
2021/11/18 03:23:56;;;;;;;7.28;1.98;;;;;;;9.70;69.97;101630.00;6306085;22;20003;-74
2021/11/18 03:26:25;;;;;;;6.95;1.77;;;;;;;9.73;70.22;101634.97;6274903;22;20003;-73
2021/11/18 03:28:50;;;;;;;3.40;2.00;;;;;;;9.75;69.93;101638.31;6277792;22;19996;-74
2021/11/18 03:31:18;;;;;;;12.25;2.03;;;;;;;9.82;69.48;101635.50;6251292;22;20094;-74
2021/11/18 03:33:58;;;;;;;12.20;2.38;;;;;;;9.84;69.38;101634.22;6279543;22;20117;-74
2021/11/18 03:36:26;;;;;;;9.15;2.35;;;;;;;9.89;69.68;101628.03;6309294;22;20002;-73
2021/11/18 03:38:56;;;;;;;5.95;2.25;;;;;;;9.90;69.52;101630.53;6308175;22;19999;-74
2021/11/18 03:41:25;;;;;;;8.50;1.88;;;;;;;9.92;69.58;101622.13;6302821;22;20007;-74
2021/11/18 03:43:56;;;;;;;8.40;1.60;;;;;;;9.93;69.18;101627.34;6280300;22;20350;-75
2021/11/18 03:46:28;;;;;;;9.98;2.40;;;;;;;9.98;69.47;101625.81;6274088;22;20010;-74
2021/11/18 03:48:56;;;;;;;2.95;1.45;;;;;;;9.99;69.34;101628.31;6302181;22;20007;-75
2021/11/18 03:51:22;;;;;;;2.65;1.58;;;;;;;10.02;69.28;101621.56;6301443;22;20082;-74
2021/11/18 03:53:48;;;;;;;8.07;0.95;;;;;;;10.06;69.61;101626.31;6277017;22;20426;-75
2021/11/18 03:56:18;;;;;;;10.40;1.60;;;;;;;10.09;69.26;101623.13;6276280;22;20317;-76
2021/11/18 03:58:45;;;;;;;8.15;2.10;;;;;;;10.10;69.29;101627.53;6298294;22;20441;-75
2021/11/18 04:01:10;;;;;;;10.57;2.35;;;;;;;10.11;69.33;101631.09;6304914;22;20068;-75
2021/11/18 04:03:37;;;;;;;11.25;1.90;;;;;;;10.11;69.18;101625.63;6250036;22;20438;-75
2021/11/18 04:06:03;;;;;;;6.03;1.90;;;;;;;10.07;69.29;101613.47;6303131;22;20716;-75
2021/11/18 04:08:28;;;;;;;9.20;1.70;;;;;;;10.12;69.64;101605.44;6301569;22;19999;-75
2021/11/18 04:10:55;;;;;;;4.65;1.85;;;;;;;10.04;69.23;101606.56;6274578;22;20012;-74
2021/11/18 04:13:20;;;;;;;9.30;2.20;;;;;;;10.02;69.84;101605.16;6276814;22;20080;-76
2021/11/18 04:15:52;;;;;;;8.73;2.00;;;;;;;9.98;69.59;101609.41;6250687;22;20422;-75
2021/11/18 04:18:22;;;;;;;8.00;2.28;;;;;;;9.97;70.02;101619.50;6273395;22;20007;-74
2021/11/18 04:20:51;;;;;;;10.18;2.35;;;;;;;9.91;69.37;101620.44;6302349;22;20058;-75
2021/11/18 04:23:19;;;;;;;11.00;2.03;;;;;;;9.85;69.79;101619.47;6274214;22;20075;-75
2021/11/18 04:25:45;;;;;;;7.88;1.90;;;;;;;9.72;69.86;101606.81;6274227;22;20094;-74
2021/11/18 04:28:12;;;;;;;16.65;2.00;;;;;;;9.62;70.51;101606.53;6304294;22;20006;-74
2021/11/18 04:30:59;;;;;;;10.00;1.63;;;;;;;9.54;70.32;101599.50;6272133;22;20003;-76
2021/11/18 04:33:27;;;;;;;6.88;1.63;;;;;;;9.56;70.95;101612.94;6301610;22;20018;-75
2021/11/18 04:35:54;;;;;;;7.97;2.05;;;;;;;9.49;71.20;101604.84;6276254;22;20011;-74
2021/11/18 04:38:20;;;;;;;9.48;2.20;;;;;;;9.50;71.37;101608.41;6301240;22;20322;-73
2021/11/18 04:40:46;;;;;;;10.77;2.20;;;;;;;9.39;71.42;101607.28;6274619;22;20106;-74
2021/11/18 04:43:15;;;;;;;7.15;2.00;;;;;;;9.34;71.39;101602.47;6304241;22;20004;-75
2021/11/18 04:45:41;;;;;;;10.98;1.70;;;;;;;9.26;71.83;101592.72;6273689;22;20033;-74
2021/11/18 04:48:14;;;;;;;5.38;2.17;;;;;;;9.23;71.86;101604.09;6276325;22;20034;-74
2021/11/18 04:50:40;;;;;;;11.10;2.40;;;;;;;9.26;72.25;101609.09;6271096;22;20011;-73
2021/11/18 04:53:11;;;;;;;3.70;1.30;;;;;;;9.23;72.47;101598.63;6277741;22;20007;-73
2021/11/18 04:55:38;;;;;;;9.68;2.00;;;;;;;9.21;72.62;101597.19;6274371;22;20061;-75
2021/11/18 04:58:05;;;;;;;11.52;1.48;;;;;;;9.21;72.72;101602.66;6302328;22;20046;-75
2021/11/18 05:00:38;;;;;;;6.30;1.73;;;;;;;9.20;72.62;101599.09;6302197;22;20014;-74
2021/11/18 05:03:04;;;;;;;7.15;1.85;;;;;;;9.20;72.60;101607.28;6305503;22;20050;-75
2021/11/18 05:05:33;;;;;;;5.78;1.38;;;;;;;9.22;72.96;101602.41;6302519;22;20007;-74
2021/11/18 05:07:58;;;;;;;7.20;1.20;;;;;;;9.23;72.50;101620.47;6301382;22;20006;-75
2021/11/18 05:10:25;;;;;;;5.43;1.58;;;;;;;9.21;72.57;101617.16;6276779;22;20011;-76
2021/11/18 05:12:51;;;;;;;1.27;0.88;;;;;;;9.27;72.57;101620.84;6279591;22;20326;-78
2021/11/18 05:15:21;;;;;;;10.35;2.17;;;;;;;9.25;72.68;101612.88;6305067;22;20071;-77
2021/11/18 05:17:48;;;;;;;15.77;1.85;;;;;;;9.24;72.73;101622.16;6304847;22;20006;-77
2021/11/18 05:20:14;;;;;;;10.10;1.98;;;;;;;9.21;72.74;101613.56;6309976;22;20031;-74
2021/11/18 05:22:41;;;;;;;12.82;2.47;;;;;;;9.17;72.89;101612.34;6248349;22;20022;-72
2021/11/18 05:25:07;;;;;;;16.45;1.85;;;;;;;9.22;72.69;101624.25;6250340;22;20375;-71
2021/11/18 05:27:32;;;;;;;11.18;1.50;;;;;;;9.21;73.39;101616.28;6301984;22;20011;-72
2021/11/18 05:29:58;;;;;;;5.57;1.25;;;;;;;9.25;73.49;101621.06;6276900;22;20381;-71
2021/11/18 05:32:23;;;;;;;13.65;1.85;;;;;;;9.31;72.70;101621.22;6249299;22;20007;-72
2021/11/18 05:34:49;;;;;;;14.90;1.95;;;;;;;9.35;73.22;101622.44;6275874;22;20083;-71
2021/11/18 05:37:16;;;;;;;22.15;2.70;;;;;;;9.36;73.05;101624.94;6303428;22;20026;-72
2021/11/18 05:39:41;;;;;;;7.90;1.88;;;;;;;9.36;73.62;101624.09;6275893;22;20329;-72
2021/11/18 05:42:07;;;;;;;15.38;2.63;;;;;;;9.41;72.92;101621.53;6250175;22;20094;-73
2021/11/18 05:44:32;;;;;;;11.23;2.20;;;;;;;9.42;73.29;101634.13;6302457;22;20035;-72
2021/11/18 05:46:58;;;;;;;7.65;1.55;;;;;;;9.42;73.22;101629.47;6277298;22;20015;-73
2021/11/18 05:49:24;;;;;;;5.53;1.10;;;;;;;9.51;73.38;101640.94;6301912;22;20340;-72
2021/11/18 05:52:09;;;;;;;3.92;1.42;;;;;;;9.54;73.29;101635.00;6298736;22;20028;-72
2021/11/18 05:54:34;;;;;;;9.18;2.00;;;;;;;9.60;73.30;101636.81;6273051;22;20003;-73
2021/11/18 05:57:00;;;;;;;3.30;1.48;;;;;;;9.61;73.00;101637.66;6303987;22;20016;-71
2021/11/18 05:59:25;;;;;;;9.20;1.73;;;;;;;9.59;73.13;101639.78;6301495;22;20007;-71
2021/11/18 06:01:51;;;;;;;12.57;1.70;;;;;;;9.46;72.80;101623.56;6301533;22;20007;-71
2021/11/18 06:04:16;;;;;;;4.40;1.40;;;;;;;9.40;72.94;101630.78;6253330;22;20011;-77
2021/11/18 06:06:42;;;;;;;7.15;1.70;;;;;;;9.32;72.72;101634.66;6306673;22;20148;-78
2021/11/18 06:09:08;;;;;;;8.40;2.35;;;;;;;9.23;72.84;101634.13;6305357;22;20014;-77
2021/11/18 06:11:37;;;;;;;6.95;1.50;;;;;;;9.15;72.93;101639.88;6249994;22;20007;-77
2021/11/18 06:14:04;;;;;;;5.78;1.60;;;;;;;9.05;73.05;101634.09;6303831;22;20007;-77
2021/11/18 06:16:31;;;;;;;10.75;1.65;;;;;;;8.97;73.63;101637.16;6306374;22;20003;-77
2021/11/18 06:19:00;;;;;;;7.50;1.55;;;;;;;8.94;73.55;101637.59;6303628;22;20056;-77
2021/11/18 06:21:25;;;;;;;8.77;1.85;;;;;;;8.88;73.92;101626.50;6305662;22;20022;-77
2021/11/18 06:23:51;;;;;;;4.20;1.17;;;;;;;8.93;73.90;101635.94;6278697;22;20014;-77
2021/11/18 06:26:18;;;;;;;7.15;1.95;;;;;;;8.96;74.07;101630.00;6276388;22;20406;-75
2021/11/18 06:28:43;;;;;;;7.97;1.27;;;;;;;9.12;74.32;101645.78;6275582;22;20015;-75
2021/11/18 06:31:12;;;;;;;8.02;1.23;;;;;;;9.20;74.49;101648.22;6305945;22;20133;-76
2021/11/18 06:33:41;;;;;;;7.22;1.75;;;;;;;9.30;74.49;101638.66;6305629;22;20318;-77
2021/11/18 06:36:11;;;;;;;6.32;1.30;;;;;;;9.39;74.18;101640.88;6277252;22;20049;-77
2021/11/18 06:38:40;;;;;;;6.20;1.50;;;;;;;9.44;74.63;101640.19;6253236;22;20007;-77
2021/11/18 06:41:06;;;;;;;12.02;1.52;;;;;;;9.52;74.77;101650.81;6304675;22;20372;-79
2021/11/18 06:43:33;;;;;;;10.05;2.10;;;;;;;9.55;74.75;101644.88;6304953;22;20006;-75
2021/11/18 06:45:59;;;;;;;13.13;2.03;;;;;;;9.55;74.98;101644.88;6304041;22;20007;-77
2021/11/18 06:48:30;;;;;;;16.27;2.20;;;;;;;9.51;75.20;101629.19;6304743;22;20003;-76
2021/11/18 06:51:02;;;;;;;13.32;1.60;;;;;;;9.51;75.39;101632.75;6255673;22;20014;-77
2021/11/18 06:53:30;;;;;;;9.82;1.85;;;;;;;9.46;75.56;101632.56;6304359;22;19999;-77
2021/11/18 06:55:56;;;;;;;16.33;1.70;;;;;;;9.46;75.74;101640.78;6254734;22;20417;-77
2021/11/18 06:58:21;;;;;;;10.43;2.20;;;;;;;9.44;75.95;101642.91;6259372;22;20026;-76
2021/11/18 07:00:47;;;;;;;9.15;1.48;;;;;;;9.48;75.96;101646.84;6301787;22;20007;-77
2021/11/18 07:03:14;;;;;;;10.63;1.65;;;;;;;9.48;75.61;101646.84;6325638;22;20014;-77
2021/11/18 07:05:40;;;;;;;11.60;1.75;;;;;;;9.48;75.68;101644.13;6327760;22;19998;-77
2021/11/18 07:08:06;;;;;;;12.93;1.42;;;;;;;9.52;76.22;101639.88;6288922;22;20484;-78
2021/11/18 07:10:33;;;;;;;7.13;1.30;;;;;;;9.55;75.59;101650.34;6325050;22;19995;-79
2021/11/18 07:13:01;;;;;;;8.30;1.38;;;;;;;9.53;75.76;101641.53;6270897;22;20035;-80
2021/11/18 07:15:36;;;;;;;6.93;1.20;;;;;;;9.60;76.13;101636.81;6286579;22;19996;-79
2021/11/18 07:18:14;;;;;;;;;;;;;;;;;;;;;
2021/11/18 07:21:10;;;;;;;12.65;1.60;;;;;;;9.59;76.50;101628.84;6289890;22;20034;-79
2021/11/18 07:23:50;;;;;;;;;;;;;;;;;;;;;
2021/11/18 07:26:19;;;;;;;7.45;1.90;;;;;;;9.78;75.77;101656.97;6313650;22;20014;-86
2021/11/18 07:28:57;;;;;;;;;;;;;;;;;;;;;
2021/11/18 07:31:23;;;;;;;7.85;1.08;;;;;;;9.87;75.39;101666.53;6317867;22;20058;-75
2021/11/18 07:33:51;;;;;;;16.08;1.55;;;;;;;9.88;75.79;101670.91;6281218;22;20011;-77
2021/11/18 07:36:19;;;;;;;16.13;1.40;;;;;;;10.00;75.57;101684.63;6282927;22;20007;-76
2021/11/18 07:38:45;;;;;;;5.25;1.10;;;;;;;9.94;75.41;101686.41;6311034;22;20072;-77
2021/11/18 07:41:11;;;;;;;4.28;1.20;;;;;;;10.07;75.98;101711.88;6309989;22;20000;-76
2021/11/18 07:43:40;;;;;;;11.55;1.60;;;;;;;10.11;75.31;101707.63;6308434;22;19999;-75
2021/11/18 07:46:07;;;;;;;6.43;1.42;;;;;;;10.15;75.72;101708.81;6306223;22;20397;-74
2021/11/18 07:48:33;;;;;;;3.65;1.42;;;;;;;10.20;75.68;101706.22;6277155;22;20010;-77
2021/11/18 07:51:00;;;;;;;5.22;1.67;;;;;;;10.20;75.42;101711.69;6278158;22;20011;-74
2021/11/18 07:53:27;;;;;;;6.95;1.20;;;;;;;10.21;75.97;101713.34;6305201;22;19999;-75
2021/11/18 07:55:55;;;;;;;11.73;1.67;;;;;;;10.21;75.91;101707.88;6277666;22;19999;-76
2021/11/18 07:58:24;;;;;;;6.32;1.55;;;;;;;10.22;75.75;101706.84;6279559;22;20069;-83
2021/11/18 08:00:58;;;;;;;9.20;1.35;;;;;;;10.22;76.18;101708.72;6284313;22;20414;-82
2021/11/18 08:03:38;;;;;;;5.30;1.20;;;;;;;10.27;75.85;101715.16;6305981;22;20364;-80
2021/11/18 08:06:22;;;;;;;3.95;0.88;;;;;;;10.27;75.55;101706.94;6279780;22;20441;-77
2021/11/18 08:08:59;;;;;;;;;;;;;;;;;;;;;
2021/11/18 08:11:32;;;;;;;4.20;1.20;;;;;;;10.39;76.05;101714.41;6304739;22;20071;-75
2021/11/18 08:14:08;;;;;;;5.40;1.02;;;;;;;10.57;76.24;101736.22;6276634;22;20011;-75
2021/11/18 08:16:34;;;;;;;3.95;1.13;;;;;;;10.54;76.25;101722.16;6278216;22;20007;-76
2021/11/18 08:19:01;;;;;;;7.63;1.80;;;;;;;10.73;75.87;101736.59;6252067;22;20098;-75
2021/11/18 08:21:27;;;;;;;5.15;0.82;;;;;;;10.80;76.05;101742.78;6276768;22;20011;-75
2021/11/18 08:23:53;;;;;;;2.75;1.05;;;;;;;10.85;75.74;101745.66;6278118;22;20222;-75
2021/11/18 08:26:20;;;;;;;3.42;0.73;;;;;;;10.90;75.76;101748.50;6305602;22;20003;-75
2021/11/18 08:28:46;;;;;;;8.02;1.05;;;;;;;10.97;76.02;101749.25;6279998;22;20017;-75
2021/11/18 08:31:14;;;;;;;3.75;0.80;;;;;;;11.10;76.11;101759.13;6280038;22;20029;-75
2021/11/18 08:33:41;;;;;;;2.92;0.60;;;;;;;11.15;75.30;101750.22;6255055;22;20065;-73
2021/11/18 08:36:06;;;;;;;7.30;0.75;;;;;;;11.19;74.92;101751.41;6254242;22;20318;-74
2021/11/18 08:38:32;;;;;;;4.13;0.98;;;;;;;11.28;74.96;101754.63;6229786;22;20003;-74
2021/11/18 08:41:04;;;;;;;5.43;0.90;;;;;;;11.38;75.20;101759.50;6255535;22;20014;-78
2021/11/18 08:43:42;;;;;;;5.35;1.02;;;;;;;11.41;74.62;101765.31;6286360;22;20030;-77
2021/11/18 08:46:09;;;;;;;7.15;1.00;;;;;;;11.45;74.46;101761.03;6312187;22;20317;-76
2021/11/18 08:48:36;;;;;;;2.17;0.60;;;;;;;11.58;74.02;101765.44;6284428;22;20003;-75
2021/11/18 08:51:02;;;;;;;11.57;1.30;;;;;;;11.67;73.39;101764.00;6284460;22;20003;-76
2021/11/18 08:53:30;;;;;;;5.18;1.00;;;;;;;11.77;73.86;101765.28;6286805;22;20041;-75
2021/11/18 08:55:57;;;;;;;10.95;1.02;;;;;;;11.85;73.59;101770.41;6287377;22;20022;-75
2021/11/18 08:58:26;;;;;;;8.20;1.50;;;;;;;12.00;73.41;101778.13;6286625;22;20027;-75
2021/11/18 09:00:58;;;;;;;4.50;1.15;;;;;;;12.16;72.67;101776.53;6314665;22;19999;-75
2021/11/18 09:03:29;;;;;;;2.67;0.95;;;;;;;12.29;72.65;101776.25;6282290;22;20019;-77
2021/11/18 09:05:56;;;;;;;4.68;1.00;;;;;;;12.39;72.24;101765.47;6280560;22;20630;-76
2021/11/18 09:08:23;;;;;;;4.45;0.88;;;;;;;12.43;71.14;101760.34;6307547;22;20438;-75
2021/11/18 09:10:58;;;;;;;9.18;1.30;;;;;;;12.58;70.98;101768.00;6310016;22;19995;-80
2021/11/18 09:13:26;;;;;;;5.82;1.33;;;;;;;12.63;71.20;101759.88;6287223;22;20476;-78
2021/11/18 09:15:58;;;;;;;3.90;0.82;;;;;;;12.71;70.84;101750.41;6312102;22;20092;-79
2021/11/18 09:18:32;;;;;;;3.35;1.55;;;;;;;12.80;70.14;101737.91;6286021;22;20003;-78
2021/11/18 09:20:58;;;;;;;3.33;1.10;;;;;;;12.96;70.32;101749.16;6284297;22;20003;-77
2021/11/18 09:23:35;;;;;;;4.70;1.10;;;;;;;13.21;69.50;101755.03;6285049;22;20193;-76
2021/11/18 09:26:18;;;;;;;8.77;1.45;;;;;;;13.58;68.89;101732.53;6310988;22;20003;-75
2021/11/18 09:28:46;;;;;;;7.93;1.23;;;;;;;13.99;67.84;101756.13;6313257;22;20003;-77
2021/11/18 09:31:22;;;;;;;4.88;0.60;;;;;;;14.28;67.45;101742.97;6284554;22;20069;-78
2021/11/18 09:34:06;;;;;;;1.17;0.60;;;;;;;14.69;65.86;101757.19;6310188;22;20047;-73
2021/11/18 09:36:32;;;;;;;3.65;0.60;;;;;;;14.76;64.93;101746.81;6309480;22;19995;-73
2021/11/18 09:39:11;;;;;;;4.68;0.75;;;;;;;15.02;64.71;101755.25;6282590;22;20007;-74
2021/11/18 09:41:55;;;;;;;1.92;0.43;;;;;;;15.33;64.10;101745.31;6309268;22;20437;-74
2021/11/18 09:44:49;;;;;;;3.38;0.80;;;;;;;15.91;62.61;101765.75;6284216;22;20014;-73
2021/11/18 09:47:45;;;;;;;1.95;0.82;;;;;;;16.32;61.86;101760.38;6310280;22;20071;-73
2021/11/18 09:50:20;;;;;;;3.25;0.50;;;;;;;16.53;60.53;101747.44;6284242;22;19999;-75
2021/11/18 09:52:54;;;;;;;5.30;0.47;;;;;;;16.74;60.55;101751.03;6287057;22;20674;-77
2021/11/18 09:55:45;;;;;;;4.60;0.67;;;;;;;17.06;59.18;101763.78;6282537;22;19995;-76
2021/11/18 09:58:10;;;;;;;2.30;0.35;;;;;;;17.16;59.13;101772.06;6280907;22;20080;-77
2021/11/18 10:01:20;;;;;;;3.60;0.43;;;;;;;17.16;58.44;101761.00;6285699;22;20003;-78
2021/11/18 10:04:29;;;;;;;1.15;0.45;;;;;;;17.05;57.51;101762.94;6271206;22;20003;-76
2021/11/18 10:07:03;;;;;;;2.92;0.82;;;;;;;16.95;57.74;101742.78;6310071;22;20008;-76
2021/11/18 10:09:44;;;;;;;;;;;;;;;;;;;;;
2021/11/18 10:12:35;;;;;;;1.10;0.47;;;;;;;17.07;57.76;101755.22;6310546;22;20038;-75
2021/11/18 10:15:19;;;;;;;0.75;0.40;;;;;;;17.19;56.83;101770.69;6280034;22;19999;-73
2021/11/18 10:17:55;;;;;;;0.50;0.30;;;;;;;17.09;56.78;101782.56;6279212;22;20011;-73
2021/11/18 10:20:24;;;;;;;7.47;0.75;;;;;;;16.78;57.43;101789.97;6309865;22;20006;-71
2021/11/18 10:22:59;;;;;;;0.25;0.20;;;;;;;16.49;58.19;101793.28;6280756;22;20010;-73
2021/11/18 10:25:32;;;;;;;0.32;0.13;;;;;;;16.13;59.44;101788.44;6283333;22;20003;-74
2021/11/18 10:28:20;;;;;;;1.00;0.40;;;;;;;15.88;59.85;101784.47;6280801;22;20069;-74
2021/11/18 10:31:08;;;;;;;1.05;0.28;;;;;;;15.54;60.83;101784.84;6260299;22;20011;-73
2021/11/18 10:33:55;;;;;;;0.20;0.20;;;;;;;15.06;62.74;101783.94;6310571;22;19999;-72
2021/11/18 10:36:47;;;;;;;0.95;0.60;;;;;;;14.59;64.24;101790.94;6309254;22;20023;-72
2021/11/18 10:39:39;;;;;;;0.60;0.40;;;;;;;14.09;66.00;101781.84;6281722;22;20437;-74
2021/11/18 10:42:18;;;;;;;1.45;0.50;;;;;;;13.98;66.70;101776.50;6309203;22;20003;-74
2021/11/18 10:45:01;;;;;;;2.80;0.40;;;;;;;13.87;67.87;101781.00;6309035;22;20061;-74
2021/11/18 10:47:35;;;;;;;0.65;0.30;;;;;;;13.68;68.44;101795.06;6279235;22;20078;-70
2021/11/18 10:50:38;;;;;;;3.07;0.60;;;;;;;13.59;69.54;101783.69;6307559;22;20052;-73
2021/11/18 10:53:29;;;;;;;2.90;0.40;;;;;;;13.54;70.13;101791.03;6312307;22;20060;-76
2021/11/18 10:56:17;;;;;;;0.95;0.50;;;;;;;13.51;69.74;101786.84;6286096;22;20670;-79
2021/11/18 10:59:02;;;;;;;1.25;0.50;;;;;;;13.38;69.89;101770.72;6286843;22;20023;-78
2021/11/18 11:01:30;;;;;;;0.98;0.57;;;;;;;13.54;70.59;101802.00;6286395;22;20077;-76
2021/11/18 11:04:06;;;;;;;0.40;0.40;;;;;;;13.56;70.54;101784.16;6287216;22;20094;-77
2021/11/18 11:06:43;;;;;;;;;;;;;;;13.83;70.01;101804.59;6315984;22;20003;-77
2021/11/18 11:09:16;;;;;;;3.63;0.38;;;;;;;13.82;69.42;101802.94;6315710;22;19909;-74
2021/11/18 11:12:03;;;;;;;1.10;0.52;;;;;;;13.97;69.74;101797.63;6289091;22;20003;-77
2021/11/18 11:14:48;;;;;;;2.58;0.80;;;;;;;14.07;69.26;101797.75;6318782;22;20074;-75
2021/11/18 11:17:26;;;;;;;1.20;0.30;;;;;;;14.09;69.34;101787.34;6286041;22;20007;-74
2021/11/18 11:20:10;;;;;;;0.30;0.30;;;;;;;14.18;68.89;101795.13;6288127;22;20421;-74
2021/11/18 11:22:45;;;;;;;0.68;0.40;;;;;;;14.55;68.91;101789.78;6290736;22;20038;-75
2021/11/18 11:26:08;;;;;;;1.00;0.40;;;;;;;15.03;67.38;101801.00;6317049;22;20442;-75
2021/11/18 11:28:57;;;;;;;4.97;0.50;;;;;;;15.49;66.28;101808.78;6138724;23;20021;-76
2021/11/18 11:31:27;;;;;;;0.95;0.20;;;;;;;16.44;63.51;101788.56;6135930;23;20009;-74
2021/11/18 11:34:11;;;;;;;0.20;0.10;;;;;;;17.67;60.90;101784.97;6256834;22;20007;-75
2021/11/18 11:36:46;;;;;;;0.75;0.10;;;;;;;18.36;57.94;101773.38;6318469;22;20028;-77
2021/11/18 11:39:28;;;;;;;0.17;0.10;;;;;;;18.65;56.00;101762.38;6290461;22;20123;-75
2021/11/18 11:42:09;;;;;;;0.43;0.20;;;;;;;18.80;55.47;101778.03;6317816;22;20013;-73
2021/11/18 11:45:25;;;;;;;0.00;0.00;;;;;;;18.81;55.28;101776.94;6314919;22;20382;-76
2021/11/18 11:48:16;;;;;;;2.07;0.10;;;;;;;19.10;55.88;101777.00;6253791;22;20062;-76
2021/11/18 11:51:04;;;;;;;0.08;0.00;;;;;;;19.80;53.54;101783.22;6289937;22;20003;-74
2021/11/18 11:54:09;;;;;;;0.68;0.05;;;;;;;20.40;51.57;101775.22;6317197;22;20006;-77
2021/11/18 11:56:42;;;;;;;1.52;0.10;;;;;;;20.43;51.27;101772.97;6316894;22;20325;-75
2021/11/18 11:59:13;;;;;;;0.20;0.10;;;;;;;20.04;50.75;101778.50;6316475;22;20007;-78
2021/11/18 12:01:54;;;;;;;0.32;0.10;;;;;;;19.51;51.87;101770.22;6291569;22;20090;-74
2021/11/18 12:04:46;;;;;;;0.40;0.10;;;;;;;19.35;52.89;101767.59;6298363;22;20075;-79
2021/11/18 12:07:36;;;;;;;0.25;0.08;;;;;;;19.88;52.03;101780.63;6296669;22;20003;-78